Time;durP1;ratioP1;P1;durP2;ratioP2;P2;SDS_P1;SDS_P2;PMS_P1;PMS_P2;Temp;Humidity;BMP_temperature;BMP_pressure;BME280_temperature;BME280_humidity;BME280_pressure;Samples;Min_cycle;Max_cycle;Signal;HPM_P1;HPM_P2
2022/03/15 00:00:20;;;;;;;24.80;8.32;;;;;;;;;;4970788;28;93504;-69
2022/03/15 00:02:48;;;;;;;17.63;7.45;;;;;;;;;;4974320;28;93441;-69
2022/03/15 00:05:15;;;;;;;15.40;8.07;;;;;;;;;;4971511;28;93675;-69
2022/03/15 00:07:42;;;;;;;21.52;8.45;;;;;;;;;;4971953;28;93645;-69
2022/03/15 00:10:08;;;;;;;14.73;7.65;;;;;;;;;;4971432;28;92290;-69
2022/03/15 00:12:34;;;;;;;18.10;7.80;;;;;;;;;;4972533;28;92631;-69
2022/03/15 00:15:01;;;;;;;20.38;7.65;;;;;;;;;;4974685;28;93618;-69
2022/03/15 00:17:27;;;;;;;12.95;7.35;;;;;;;;;;4974339;28;95128;-69
2022/03/15 00:19:53;;;;;;;14.50;7.68;;;;;;;;;;4974859;28;95661;-69
2022/03/15 00:22:20;;;;;;;13.38;7.07;;;;;;;;;;4975262;28;93558;-69
2022/03/15 00:24:46;;;;;;;15.30;8.35;;;;;;;;;;4978146;28;92425;-69
2022/03/15 00:27:13;;;;;;;19.92;8.00;;;;;;;;;;4975653;28;93454;-69
2022/03/15 00:29:41;;;;;;;18.48;7.47;;;;;;;;;;4972956;28;92502;-69
2022/03/15 00:32:08;;;;;;;13.02;6.63;;;;;;;;;;4974925;28;93222;-69
2022/03/15 00:34:34;;;;;;;14.27;7.28;;;;;;;;;;4975374;28;94143;-70
2022/03/15 00:37:00;;;;;;;11.43;6.60;;;;;;;;;;4975426;28;93033;-70
2022/03/15 00:39:27;;;;;;;23.08;7.97;;;;;;;;;;4975538;28;93588;-70
2022/03/15 00:41:54;;;;;;;17.63;8.18;;;;;;;;;;4973040;28;95820;-70
2022/03/15 00:44:20;;;;;;;22.27;8.00;;;;;;;;;;4974993;28;92854;-70
2022/03/15 00:46:46;;;;;;;17.63;7.93;;;;;;;;;;4978648;28;93307;-68
2022/03/15 00:49:13;;;;;;;20.65;8.48;;;;;;;;;;4975777;28;92460;-68
2022/03/15 00:51:39;;;;;;;23.45;8.63;;;;;;;;;;4975241;28;93253;-69
2022/03/15 00:54:05;;;;;;;21.40;8.27;;;;;;;;;;4970145;28;93737;-69
2022/03/15 00:56:31;;;;;;;17.20;8.70;;;;;;;;;;4975664;28;92606;-70
2022/03/15 00:58:58;;;;;;;14.55;7.47;;;;;;;;;;4975235;28;94663;-70
2022/03/15 01:01:24;;;;;;;23.98;8.63;;;;;;;;;;4974299;28;93453;-69
2022/03/15 01:03:51;;;;;;;17.52;7.18;;;;;;;;;;4975365;28;92523;-69
2022/03/15 01:06:17;;;;;;;19.10;7.05;;;;;;;;;;4973351;28;94847;-69
2022/03/15 01:08:44;;;;;;;16.33;7.18;;;;;;;;;;4977545;28;93868;-69
2022/03/15 01:11:10;;;;;;;19.60;7.93;;;;;;;;;;4974771;28;93610;-69
2022/03/15 01:13:36;;;;;;;25.27;7.45;;;;;;;;;;4974152;28;94308;-69
2022/03/15 01:16:02;;;;;;;18.33;7.78;;;;;;;;;;4971729;28;92701;-70
2022/03/15 01:18:30;;;;;;;20.73;7.43;;;;;;;;;;4961614;28;94345;-69
2022/03/15 01:20:56;;;;;;;20.50;7.70;;;;;;;;;;4967864;28;92993;-69
2022/03/15 01:23:23;;;;;;;17.23;7.28;;;;;;;;;;4969319;28;91729;-70
2022/03/15 01:25:49;;;;;;;18.42;7.43;;;;;;;;;;4973915;28;92733;-69
2022/03/15 01:28:16;;;;;;;14.63;6.43;;;;;;;;;;4974873;28;94911;-69
2022/03/15 01:30:43;;;;;;;18.45;6.55;;;;;;;;;;4973000;28;95124;-69
2022/03/15 01:33:09;;;;;;;17.60;6.70;;;;;;;;;;4974063;28;93654;-69
2022/03/15 01:35:35;;;;;;;25.45;6.22;;;;;;;;;;4974905;28;92592;-69
2022/03/15 01:38:02;;;;;;;16.77;6.75;;;;;;;;;;4979496;28;94741;-70
2022/03/15 01:40:28;;;;;;;15.05;6.65;;;;;;;;;;4972861;28;93422;-70
2022/03/15 01:42:55;;;;;;;19.88;6.70;;;;;;;;;;4988340;28;93163;-69
2022/03/15 01:45:29;;;;;;;17.15;7.20;;;;;;;;;;4975391;28;93205;-69
2022/03/15 01:47:56;;;;;;;11.38;6.38;;;;;;;;;;4972709;28;92732;-69
2022/03/15 01:50:23;;;;;;;20.95;8.50;;;;;;;;;;4977137;28;92443;-69
2022/03/15 01:52:49;;;;;;;15.85;7.32;;;;;;;;;;4974206;28;93887;-68
2022/03/15 01:55:16;;;;;;;16.83;7.07;;;;;;;;;;4970716;28;94879;-69
2022/03/15 01:57:42;;;;;;;15.10;7.05;;;;;;;;;;4970523;28;95562;-68
2022/03/15 02:00:09;;;;;;;16.08;7.22;;;;;;;;;;4988922;28;93439;-69
2022/03/15 02:02:35;;;;;;;19.08;6.63;;;;;;;;;;4973626;28;92791;-69
2022/03/15 02:05:02;;;;;;;16.00;7.03;;;;;;;;;;4973498;28;94355;-69
2022/03/15 02:07:28;;;;;;;17.25;6.63;;;;;;;;;;4974101;28;93437;-69
2022/03/15 02:09:55;;;;;;;18.45;7.22;;;;;;;;;;4971595;28;92804;-69
2022/03/15 02:12:21;;;;;;;15.35;6.90;;;;;;;;;;4977477;28;96298;-69
2022/03/15 02:14:47;;;;;;;18.23;7.15;;;;;;;;;;4974107;28;92496;-69
2022/03/15 02:17:13;;;;;;;16.25;6.63;;;;;;;;;;4973656;28;92695;-68
2022/03/15 02:19:41;;;;;;;13.48;6.45;;;;;;;;;;4972810;28;95873;-69
2022/03/15 02:22:07;;;;;;;15.32;7.35;;;;;;;;;;4972156;28;92503;-70
2022/03/15 02:24:34;;;;;;;16.02;6.47;;;;;;;;;;4973744;28;92977;-70
2022/03/15 02:27:01;;;;;;;15.65;6.72;;;;;;;;;;4985275;28;93826;-69
2022/03/15 02:29:27;;;;;;;15.55;6.35;;;;;;;;;;4973771;28;92490;-69
2022/03/15 02:31:55;;;;;;;10.73;6.60;;;;;;;;;;4973176;28;93144;-69
2022/03/15 02:34:21;;;;;;;18.85;6.95;;;;;;;;;;4976834;28;93442;-69
2022/03/15 02:36:48;;;;;;;15.13;7.35;;;;;;;;;;4973603;28;93044;-69
2022/03/15 02:39:14;;;;;;;15.55;7.38;;;;;;;;;;4973388;28;94397;-69
2022/03/15 02:41:40;;;;;;;14.50;6.85;;;;;;;;;;4972916;28;92429;-69
2022/03/15 02:44:07;;;;;;;17.45;6.90;;;;;;;;;;4971461;28;94849;-69
2022/03/15 02:46:34;;;;;;;12.52;6.22;;;;;;;;;;4978430;28;94013;-69
2022/03/15 02:49:01;;;;;;;14.75;6.93;;;;;;;;;;4973066;28;92487;-69
2022/03/15 02:51:27;;;;;;;16.00;6.60;;;;;;;;;;4973647;28;93213;-69
2022/03/15 02:53:56;;;;;;;23.85;7.68;;;;;;;;;;4972984;28;92639;-70
2022/03/15 02:56:22;;;;;;;18.63;7.70;;;;;;;;;;4976597;28;92443;-69
2022/03/15 02:58:48;;;;;;;15.18;7.72;;;;;;;;;;4972942;28;93498;-70
2022/03/15 03:01:15;;;;;;;14.57;7.22;;;;;;;;;;4973882;28;92300;-69
2022/03/15 03:03:41;;;;;;;14.02;7.68;;;;;;;;;;4973022;28;93058;-69
2022/03/15 03:06:08;;;;;;;17.67;7.53;;;;;;;;;;4972487;28;93352;-70
2022/03/15 03:08:35;;;;;;;15.63;7.60;;;;;;;;;;4971450;28;94809;-69
2022/03/15 03:11:01;;;;;;;15.15;8.02;;;;;;;;;;4972889;28;95597;-70
2022/03/15 03:13:28;;;;;;;13.32;7.07;;;;;;;;;;4973209;28;93392;-69
2022/03/15 03:15:56;;;;;;;19.52;7.43;;;;;;;;;;4972480;28;92510;-70
2022/03/15 03:18:23;;;;;;;13.90;7.45;;;;;;;;;;4976580;28;94325;-70
2022/03/15 03:20:50;;;;;;;15.82;7.90;;;;;;;;;;4973009;28;92385;-70
2022/03/15 03:23:17;;;;;;;15.20;7.10;;;;;;;;;;4971863;28;93168;-69
2022/03/15 03:25:43;;;;;;;16.85;6.82;;;;;;;;;;4972906;28;92665;-70
2022/03/15 03:28:13;;;;;;;16.50;7.38;;;;;;;;;;4972637;28;92570;-70
2022/03/15 03:30:47;;;;;;;13.40;7.20;;;;;;;;;;4972540;28;93219;-69
2022/03/15 03:33:14;;;;;;;13.43;6.93;;;;;;;;;;4969369;28;95954;-70
2022/03/15 03:35:41;;;;;;;13.52;7.10;;;;;;;;;;4972526;28;92740;-70
2022/03/15 03:38:07;;;;;;;20.67;7.22;;;;;;;;;;4974257;28;93242;-70
2022/03/15 03:40:34;;;;;;;25.65;7.82;;;;;;;;;;4973322;28;92490;-70
2022/03/15 03:43:00;;;;;;;20.55;7.47;;;;;;;;;;4972509;28;94216;-68
2022/03/15 03:45:27;;;;;;;17.25;7.88;;;;;;;;;;4972891;28;93306;-68
2022/03/15 03:47:53;;;;;;;13.45;7.10;;;;;;;;;;4971420;28;94414;-69
2022/03/15 03:50:19;;;;;;;21.05;8.30;;;;;;;;;;4977327;28;93561;-69
2022/03/15 03:52:45;;;;;;;20.98;8.00;;;;;;;;;;4975740;28;92570;-69
2022/03/15 03:55:12;;;;;;;17.88;7.68;;;;;;;;;;4975709;28;92617;-69
2022/03/15 03:57:38;;;;;;;19.45;7.38;;;;;;;;;;4970270;28;95790;-69
2022/03/15 04:00:06;;;;;;;18.92;8.27;;;;;;;;;;4978696;28;93565;-70
2022/03/15 04:02:32;;;;;;;19.98;8.15;;;;;;;;;;4975941;28;94049;-68
2022/03/15 04:04:58;;;;;;;19.98;8.05;;;;;;;;;;4974991;28;93971;-69
2022/03/15 04:07:25;;;;;;;19.73;7.45;;;;;;;;;;4975872;28;92582;-69
2022/03/15 04:09:51;;;;;;;18.73;7.60;;;;;;;;;;4975809;28;93283;-69
2022/03/15 04:12:19;;;;;;;14.55;6.78;;;;;;;;;;4975419;28;94435;-70
2022/03/15 04:14:46;;;;;;;19.70;7.70;;;;;;;;;;4974995;28;91671;-71
2022/03/15 04:17:14;;;;;;;17.52;7.32;;;;;;;;;;4976183;28;92471;-69
2022/03/15 04:19:40;;;;;;;17.77;7.90;;;;;;;;;;4975495;28;93390;-69
2022/03/15 04:22:06;;;;;;;22.13;8.48;;;;;;;;;;4965872;28;94888;-69
2022/03/15 04:24:33;;;;;;;16.48;7.72;;;;;;;;;;4975766;28;93456;-69
2022/03/15 04:26:59;;;;;;;21.42;7.82;;;;;;;;;;4975591;28;92668;-69
2022/03/15 04:29:26;;;;;;;16.95;8.05;;;;;;;;;;4975763;28;94331;-69
2022/03/15 04:31:53;;;;;;;14.60;7.35;;;;;;;;;;4973862;28;93395;-69
2022/03/15 04:34:19;;;;;;;17.10;8.07;;;;;;;;;;4976076;28;92439;-69
2022/03/15 04:36:46;;;;;;;18.15;7.43;;;;;;;;;;4974546;28;93189;-69
2022/03/15 04:39:12;;;;;;;14.77;8.07;;;;;;;;;;4975414;28;92708;-69
2022/03/15 04:41:39;;;;;;;15.40;8.32;;;;;;;;;;4975567;28;92625;-69
2022/03/15 04:44:06;;;;;;;19.45;7.75;;;;;;;;;;4977935;28;93272;-69
2022/03/15 04:46:33;;;;;;;14.10;7.20;;;;;;;;;;4975069;28;94853;-69
2022/03/15 04:49:00;;;;;;;13.90;7.47;;;;;;;;;;4974429;28;95614;-69
2022/03/15 04:51:26;;;;;;;14.60;7.88;;;;;;;;;;4974365;28;93217;-69
2022/03/15 04:53:53;;;;;;;17.77;8.13;;;;;;;;;;4973681;28;92563;-69
2022/03/15 04:56:19;;;;;;;17.00;8.13;;;;;;;;;;4975075;28;93181;-69
2022/03/15 04:58:46;;;;;;;13.05;7.13;;;;;;;;;;4972767;28;93439;-70
2022/03/15 05:01:12;;;;;;;21.95;7.50;;;;;;;;;;4964612;28;92649;-69
2022/03/15 05:03:39;;;;;;;17.73;7.97;;;;;;;;;;4974914;28;93713;-69
2022/03/15 05:06:05;;;;;;;21.60;7.85;;;;;;;;;;4959234;28;93418;-69
2022/03/15 05:08:32;;;;;;;24.23;8.52;;;;;;;;;;4974913;28;92998;-69
2022/03/15 05:11:07;;;;;;;19.50;7.53;;;;;;;;;;4965776;28;95965;-69
2022/03/15 05:13:35;;;;;;;19.42;7.65;;;;;;;;;;4973189;28;92593;-69
2022/03/15 05:16:01;;;;;;;20.40;8.10;;;;;;;;;;4970021;28;93287;-69
2022/03/15 05:18:28;;;;;;;21.15;8.35;;;;;;;;;;4967741;28;93677;-69
2022/03/15 05:20:55;;;;;;;18.00;7.95;;;;;;;;;;4958517;28;92567;-69
2022/03/15 05:23:21;;;;;;;15.48;7.55;;;;;;;;;;4974317;28;93515;-69
2022/03/15 05:25:47;;;;;;;22.45;8.85;;;;;;;;;;4969236;28;93473;-69
2022/03/15 05:28:13;;;;;;;18.05;7.10;;;;;;;;;;4977400;28;91819;-69
2022/03/15 05:30:40;;;;;;;20.02;8.32;;;;;;;;;;4972025;28;93801;-69
2022/03/15 05:33:06;;;;;;;19.27;8.52;;;;;;;;;;4958789;28;92463;-69
2022/03/15 05:35:33;;;;;;;17.25;7.40;;;;;;;;;;4965873;28;94958;-68
2022/03/15 05:37:59;;;;;;;18.27;7.90;;;;;;;;;;4970960;28;94278;-69
2022/03/15 05:40:26;;;;;;;14.93;7.50;;;;;;;;;;4960534;28;92533;-70
2022/03/15 05:42:52;;;;;;;21.08;7.93;;;;;;;;;;4967457;28;93784;-70
2022/03/15 05:45:18;;;;;;;16.73;7.70;;;;;;;;;;4972881;28;93762;-70
2022/03/15 05:47:45;;;;;;;23.13;8.57;;;;;;;;;;4973593;28;92654;-70
2022/03/15 05:50:11;;;;;;;18.08;8.07;;;;;;;;;;4971957;28;93463;-70
2022/03/15 05:52:37;;;;;;;15.25;7.97;;;;;;;;;;4973249;28;91711;-70
2022/03/15 05:55:04;;;;;;;19.30;8.80;;;;;;;;;;4964676;28;92452;-70
2022/03/15 05:57:30;;;;;;;29.02;8.70;;;;;;;;;;4970784;28;95009;-70
2022/03/15 05:59:56;;;;;;;14.18;7.50;;;;;;;;;;4964042;28;94972;-70
2022/03/15 06:02:22;;;;;;;21.80;8.57;;;;;;;;;;4961838;28;95755;-70
2022/03/15 06:04:49;;;;;;;15.82;8.15;;;;;;;;;;4967017;28;93696;-70
2022/03/15 06:07:15;;;;;;;18.73;7.72;;;;;;;;;;4958774;28;92487;-68
2022/03/15 06:09:42;;;;;;;20.00;9.15;;;;;;;;;;4975982;28;93377;-68
2022/03/15 06:12:09;;;;;;;24.90;8.38;;;;;;;;;;4986584;28;92476;-68
2022/03/15 06:14:35;;;;;;;18.88;8.30;;;;;;;;;;4973457;28;93010;-69
2022/03/15 06:17:02;;;;;;;17.00;7.57;;;;;;;;;;4974058;28;93875;-69
2022/03/15 06:19:28;;;;;;;25.33;8.20;;;;;;;;;;4966484;28;92702;-69
2022/03/15 06:21:55;;;;;;;20.88;7.90;;;;;;;;;;4956946;28;93283;-69
2022/03/15 06:24:23;;;;;;;19.15;8.25;;;;;;;;;;4963439;28;96861;-69
2022/03/15 06:26:49;;;;;;;18.77;7.97;;;;;;;;;;4965593;28;92577;-69
2022/03/15 06:29:16;;;;;;;20.33;8.63;;;;;;;;;;4960482;28;94579;-69
2022/03/15 06:31:42;;;;;;;34.67;8.63;;;;;;;;;;4970431;28;93786;-69
2022/03/15 06:34:08;;;;;;;19.85;8.23;;;;;;;;;;4973172;28;93336;-69
2022/03/15 06:36:35;;;;;;;29.23;9.88;;;;;;;;;;4974308;28;93821;-69
2022/03/15 06:39:03;;;;;;;18.52;8.48;;;;;;;;;;4971157;28;92495;-70
2022/03/15 06:41:30;;;;;;;14.82;8.63;;;;;;;;;;4973839;28;93598;-69
2022/03/15 06:43:56;;;;;;;27.92;9.70;;;;;;;;;;4972257;28;93289;-70
2022/03/15 06:46:23;;;;;;;23.35;8.23;;;;;;;;;;4973507;28;92445;-70
2022/03/15 06:48:50;;;;;;;21.42;8.85;;;;;;;;;;4969063;28;95367;-71
2022/03/15 06:51:16;;;;;;;19.85;8.30;;;;;;;;;;4972998;28;92514;-70
2022/03/15 06:53:42;;;;;;;20.70;9.10;;;;;;;;;;4975596;28;94245;-70
2022/03/15 06:56:09;;;;;;;30.45;10.07;;;;;;;;;;4973181;28;93768;-70
2022/03/15 06:58:35;;;;;;;28.08;9.88;;;;;;;;;;4968685;28;92433;-70
2022/03/15 07:01:02;;;;;;;20.50;8.90;;;;;;;;;;4965734;28;96264;-70
2022/03/15 07:03:28;;;;;;;18.55;9.73;;;;;;;;;;4972741;28;93728;-70
2022/03/15 07:05:55;;;;;;;19.50;9.80;;;;;;;;;;4971264;28;91745;-70
2022/03/15 07:08:21;;;;;;;22.10;9.10;;;;;;;;;;4970059;28;93098;-70
2022/03/15 07:10:48;;;;;;;20.13;8.93;;;;;;;;;;4962608;28;93887;-70
2022/03/15 07:13:14;;;;;;;24.00;9.00;;;;;;;;;;4971389;28;94730;-70
2022/03/15 07:15:40;;;;;;;19.73;8.48;;;;;;;;;;4975171;28;95574;-70
2022/03/15 07:18:07;;;;;;;19.40;8.82;;;;;;;;;;4971991;28;92708;-70
2022/03/15 07:20:33;;;;;;;25.23;8.98;;;;;;;;;;4972895;28;92986;-70
2022/03/15 07:22:59;;;;;;;18.95;9.60;;;;;;;;;;4971123;28;93529;-70
2022/03/15 07:25:26;;;;;;;18.88;9.65;;;;;;;;;;4972254;28;92592;-70
2022/03/15 07:27:52;;;;;;;22.95;10.18;;;;;;;;;;4956958;28;93605;-70
2022/03/15 07:30:19;;;;;;;25.15;10.93;;;;;;;;;;4961316;28;93082;-70
2022/03/15 07:32:45;;;;;;;27.88;11.65;;;;;;;;;;4957284;28;93620;-70
2022/03/15 07:35:11;;;;;;;26.25;11.90;;;;;;;;;;4972901;28;96305;-70
2022/03/15 07:37:46;;;;;;;26.52;11.35;;;;;;;;;;4968089;28;95099;-70
2022/03/15 07:40:13;;;;;;;31.33;13.10;;;;;;;;;;4970750;28;96143;-70
2022/03/15 07:42:39;;;;;;;31.80;13.35;;;;;;;;;;4970646;28;93909;-70
2022/03/15 07:45:06;;;;;;;59.67;15.52;;;;;;;;;;4972042;28;92546;-70
2022/03/15 07:47:32;;;;;;;38.15;16.35;;;;;;;;;;4969069;28;93087;-70
2022/03/15 07:49:58;;;;;;;37.40;16.00;;;;;;;;;;4961793;28;93846;-70
2022/03/15 07:52:25;;;;;;;30.92;17.05;;;;;;;;;;4951514;28;92611;-70
2022/03/15 07:54:51;;;;;;;33.38;17.67;;;;;;;;;;4970387;28;96140;-70
2022/03/15 07:57:17;;;;;;;37.83;17.23;;;;;;;;;;4973879;28;94196;-71
2022/03/15 07:59:44;;;;;;;31.92;16.55;;;;;;;;;;4964284;28;93373;-70
2022/03/15 08:02:10;;;;;;;25.25;14.32;;;;;;;;;;4966638;28;95980;-71
2022/03/15 08:04:37;;;;;;;27.95;15.38;;;;;;;;;;4971599;28;92923;-70
2022/03/15 08:07:03;;;;;;;35.63;15.10;;;;;;;;;;4970302;28;93624;-70
2022/03/15 08:09:30;;;;;;;32.20;15.90;;;;;;;;;;4970077;28;93906;-70
2022/03/15 08:11:57;;;;;;;31.52;15.90;;;;;;;;;;4971121;28;92416;-71
2022/03/15 08:14:23;;;;;;;29.05;17.15;;;;;;;;;;4968901;28;94214;-70
2022/03/15 08:16:50;;;;;;;36.75;16.88;;;;;;;;;;4970211;28;93598;-70
2022/03/15 08:19:17;;;;;;;30.70;15.77;;;;;;;;;;4970656;28;92327;-70
2022/03/15 08:21:43;;;;;;;29.25;15.85;;;;;;;;;;4970748;28;93578;-70
2022/03/15 08:24:11;;;;;;;25.75;14.65;;;;;;;;;;4970276;28;92439;-71
2022/03/15 08:26:38;;;;;;;35.22;14.85;;;;;;;;;;4970956;28;94767;-71
2022/03/15 08:29:04;;;;;;;31.58;15.18;;;;;;;;;;4970547;28;92748;-70
2022/03/15 08:31:31;;;;;;;30.80;15.85;;;;;;;;;;4971580;28;92445;-70
2022/03/15 08:33:57;;;;;;;29.38;14.50;;;;;;;;;;4971790;28;93095;-69
2022/03/15 08:36:24;;;;;;;31.50;15.18;;;;;;;;;;4975268;28;93261;-71
2022/03/15 08:38:50;;;;;;;37.50;15.30;;;;;;;;;;4974046;28;92556;-70
2022/03/15 08:41:16;;;;;;;28.23;14.63;;;;;;;;;;4977967;28;93022;-71
2022/03/15 08:43:43;;;;;;;26.35;14.88;;;;;;;;;;4974659;28;92554;-70
2022/03/15 08:46:09;;;;;;;32.67;15.15;;;;;;;;;;4972923;28;94185;-70
2022/03/15 08:48:36;;;;;;;26.08;15.70;;;;;;;;;;4974300;28;93579;-70
2022/03/15 08:51:02;;;;;;;33.45;13.88;;;;;;;;;;4970887;28;94934;-70
2022/03/15 08:53:29;;;;;;;23.35;13.35;;;;;;;;;;4975056;28;96062;-70
2022/03/15 08:55:55;;;;;;;22.48;12.73;;;;;;;;;;4973110;28;93527;-70
2022/03/15 08:58:22;;;;;;;23.38;11.95;;;;;;;;;;4954555;28;92404;-70
2022/03/15 09:00:50;;;;;;;23.20;12.63;;;;;;;;;;4974187;28;94112;-70
2022/03/15 09:03:17;;;;;;;29.25;13.27;;;;;;;;;;4977242;28;92817;-71
2022/03/15 09:05:44;;;;;;;25.30;12.55;;;;;;;;;;4973796;28;93247;-70
2022/03/15 09:08:14;;;;;;;22.70;12.63;;;;;;;;;;4968761;28;92823;-70
2022/03/15 09:10:42;;;;;;;22.30;11.95;;;;;;;;;;4967311;28;92785;-70
2022/03/15 09:13:09;;;;;;;18.27;12.02;;;;;;;;;;4954018;28;93340;-70
2022/03/15 09:15:35;;;;;;;21.98;11.82;;;;;;;;;;4959099;28;95970;-70
2022/03/15 09:18:02;;;;;;;22.17;12.30;;;;;;;;;;4973152;28;92957;-70
2022/03/15 09:20:29;;;;;;;21.80;11.88;;;;;;;;;;4971948;28;93139;-70
2022/03/15 09:22:55;;;;;;;23.10;11.63;;;;;;;;;;4954576;28;92707;-70
2022/03/15 09:25:22;;;;;;;24.15;11.50;;;;;;;;;;4958079;28;92596;-70
2022/03/15 09:27:49;;;;;;;19.55;10.57;;;;;;;;;;4964155;28;93546;-70
2022/03/15 09:30:16;;;;;;;23.67;11.00;;;;;;;;;;4962226;28;92503;-71
2022/03/15 09:32:42;;;;;;;23.25;11.07;;;;;;;;;;4973885;28;93507;-70
2022/03/15 09:35:09;;;;;;;25.60;10.20;;;;;;;;;;4968897;28;93631;-71
2022/03/15 09:37:36;;;;;;;23.33;10.70;;;;;;;;;;4974584;28;92398;-70
2022/03/15 09:40:08;;;;;;;28.27;10.55;;;;;;;;;;4968765;28;96700;-70
2022/03/15 09:42:35;;;;;;;23.77;10.90;;;;;;;;;;4967164;28;93786;-70
2022/03/15 09:45:02;;;;;;;26.45;9.85;;;;;;;;;;4963847;28;92544;-70
2022/03/15 09:47:31;;;;;;;31.75;10.70;;;;;;;;;;4972485;28;93578;-70
2022/03/15 09:50:00;;;;;;;23.58;9.95;;;;;;;;;;4966043;28;93775;-71
2022/03/15 09:52:27;;;;;;;20.48;8.75;;;;;;;;;;4967316;28;93883;-70
2022/03/15 09:54:54;;;;;;;24.58;10.05;;;;;;;;;;4959639;28;93786;-71
2022/03/15 09:57:20;;;;;;;25.17;10.05;;;;;;;;;;4973961;28;91906;-71
2022/03/15 09:59:49;;;;;;;19.30;9.18;;;;;;;;;;4971226;28;96608;-70
2022/03/15 10:02:16;;;;;;;19.75;8.80;;;;;;;;;;4973289;28;93296;-70
2022/03/15 10:04:43;;;;;;;18.63;8.63;;;;;;;;;;4972116;28;94885;-71
2022/03/15 10:07:11;;;;;;;21.73;10.00;;;;;;;;;;4979345;28;95555;-70
2022/03/15 10:09:37;;;;;;;23.45;9.15;;;;;;;;;;4973164;28;92423;-71
2022/03/15 10:12:04;;;;;;;28.92;9.90;;;;;;;;;;4965176;28;92451;-70
2022/03/15 10:14:40;;;;;;;26.42;9.50;;;;;;;;;;4953369;28;93406;-70
2022/03/15 10:17:06;;;;;;;24.63;9.80;;;;;;;;;;4973142;28;92918;-70
2022/03/15 10:19:33;;;;;;;26.00;8.95;;;;;;;;;;4957239;28;93411;-71
2022/03/15 10:22:00;;;;;;;23.27;7.85;;;;;;;;;;4959848;28;91768;-71
2022/03/15 10:24:27;;;;;;;17.58;7.25;;;;;;;;;;4964480;28;92714;-71
2022/03/15 10:26:55;;;;;;;22.38;8.55;;;;;;;;;;4972036;28;93384;-70
2022/03/15 10:29:23;;;;;;;14.88;8.77;;;;;;;;;;4975169;28;95794;-70
2022/03/15 10:31:51;;;;;;;21.40;9.00;;;;;;;;;;4973845;28;95611;-70
2022/03/15 10:34:18;;;;;;;19.90;7.88;;;;;;;;;;4972628;28;94058;-70
2022/03/15 10:36:46;;;;;;;19.40;9.07;;;;;;;;;;4972136;28;92463;-70
2022/03/15 10:39:14;;;;;;;22.45;8.25;;;;;;;;;;4973409;28;93345;-69
2022/03/15 10:41:48;;;;;;;18.35;9.45;;;;;;;;;;4972707;28;93555;-69
2022/03/15 10:44:20;;;;;;;23.42;9.98;;;;;;;;;;4973681;28;92431;-70
2022/03/15 10:46:57;;;;;;;22.10;10.00;;;;;;;;;;4959739;28;93551;-70
2022/03/15 10:49:24;;;;;;;18.27;9.60;;;;;;;;;;4953771;28;94071;-70
2022/03/15 10:51:50;;;;;;;18.40;9.43;;;;;;;;;;4967809;28;92675;-70
2022/03/15 10:54:23;;;;;;;22.85;9.65;;;;;;;;;;4971089;28;95846;-70
2022/03/15 10:56:53;;;;;;;21.42;9.88;;;;;;;;;;4961170;28;92468;-70
2022/03/15 10:59:20;;;;;;;19.23;9.82;;;;;;;;;;4953651;28;93289;-70
2022/03/15 11:01:47;;;;;;;21.27;9.10;;;;;;;;;;4969405;28;93450;-70
2022/03/15 11:04:14;;;;;;;19.70;9.05;;;;;;;;;;4966646;28;92695;-70
2022/03/15 11:06:43;;;;;;;18.10;8.82;;;;;;;;;;4970288;28;93348;-70
2022/03/15 11:09:19;;;;;;;16.88;9.18;;;;;;;;;;4968733;28;93650;-70
2022/03/15 11:12:06;;;;;;;24.38;8.93;;;;;;;;;;4973593;28;92003;-70
2022/03/15 11:14:39;;;;;;;26.33;8.77;;;;;;;;;;4976427;28;92476;-70
2022/03/15 11:17:07;;;;;;;22.55;9.95;;;;;;;;;;4963532;28;92500;-70
2022/03/15 11:19:35;;;;;;;21.00;8.73;;;;;;;;;;4960094;28;94821;-71
2022/03/15 11:22:01;;;;;;;23.55;9.43;;;;;;;;;;4957789;28;96355;-70
2022/03/15 11:24:30;;;;;;;14.27;7.70;;;;;;;;;;4953190;28;93387;-70
2022/03/15 11:26:58;;;;;;;18.98;9.10;;;;;;;;;;4963801;28;93616;-70
2022/03/15 11:29:25;;;;;;;20.70;9.18;;;;;;;;;;4953908;28;93789;-69
2022/03/15 11:31:54;;;;;;;20.15;8.55;;;;;;;;;;4952638;28;92492;-70
2022/03/15 11:34:20;;;;;;;19.20;7.55;;;;;;;;;;4954083;28;93478;-70
2022/03/15 11:36:46;;;;;;;17.13;8.10;;;;;;;;;;4970490;28;92698;-70
2022/03/15 11:39:13;;;;;;;17.55;7.75;;;;;;;;;;4973124;28;92751;-69
2022/03/15 11:41:42;;;;;;;20.42;8.30;;;;;;;;;;4973639;28;92473;-70
2022/03/15 11:44:12;;;;;;;14.65;7.47;;;;;;;;;;4971975;28;95141;-70
2022/03/15 11:46:55;;;;;;;17.40;7.28;;;;;;;;;;4970313;28;95689;-70
2022/03/15 11:49:24;;;;;;;12.88;7.70;;;;;;;;;;4973054;28;93781;-70
2022/03/15 11:51:54;;;;;;;15.57;6.93;;;;;;;;;;4968474;28;92687;-70
2022/03/15 11:54:26;;;;;;;16.35;7.03;;;;;;;;;;4972746;28;93004;-70
2022/03/15 11:57:10;;;;;;;15.77;7.43;;;;;;;;;;4975619;28;93483;-71
2022/03/15 11:59:49;;;;;;;35.22;6.90;;;;;;;;;;4972938;28;93720;-71
2022/03/15 12:02:49;;;;;;;13.75;6.65;;;;;;;;;;4969823;28;93002;-71
2022/03/15 12:05:17;;;;;;;20.07;7.00;;;;;;;;;;4969954;28;92539;-71
2022/03/15 12:07:45;;;;;;;12.55;6.82;;;;;;;;;;4971008;28;93231;-71
2022/03/15 12:10:22;;;;;;;18.08;6.47;;;;;;;;;;4970868;28;96118;-71
2022/03/15 12:12:58;;;;;;;20.52;6.57;;;;;;;;;;4976453;28;92461;-71
2022/03/15 12:15:34;;;;;;;18.70;6.22;;;;;;;;;;4974843;28;93451;-72
2022/03/15 12:18:06;;;;;;;17.52;6.25;;;;;;;;;;4966794;28;92787;-71
2022/03/15 12:20:44;;;;;;;16.67;5.88;;;;;;;;;;4975189;28;92744;-72
2022/03/15 12:23:36;;;;;;;19.05;5.78;;;;;;;;;;4956475;28;93345;-72
2022/03/15 12:26:03;;;;;;;12.43;5.43;;;;;;;;;;4955782;28;92404;-72
2022/03/15 12:28:31;;;;;;;14.13;5.43;;;;;;;;;;4956047;28;92972;-72
2022/03/15 12:31:05;;;;;;;13.07;5.40;;;;;;;;;;4969778;28;94219;-72
2022/03/15 12:33:31;;;;;;;11.60;4.57;;;;;;;;;;4961201;28;92399;-72
2022/03/15 12:36:08;;;;;;;13.38;4.38;;;;;;;;;;4954049;28;94842;-72
2022/03/15 12:38:40;;;;;;;18.65;5.10;;;;;;;;;;4956278;28;93521;-72
2022/03/15 12:41:07;;;;;;;13.65;4.38;;;;;;;;;;4968463;28;92555;-73
2022/03/15 12:43:34;;;;;;;10.50;4.10;;;;;;;;;;4977916;28;93592;-73
2022/03/15 12:46:05;;;;;;;15.45;4.88;;;;;;;;;;4975657;28;92564;-72
2022/03/15 12:48:35;;;;;;;15.93;4.32;;;;;;;;;;4975685;28;93135;-73
2022/03/15 12:51:02;;;;;;;16.00;4.53;;;;;;;;;;4971462;28;93258;-73
2022/03/15 12:53:39;;;;;;;12.10;4.15;;;;;;;;;;4966637;28;93922;-72
2022/03/15 12:56:10;;;;;;;10.60;3.00;;;;;;;;;;4969258;28;92679;-72
2022/03/15 12:58:38;;;;;;;8.25;2.97;;;;;;;;;;4973143;28;93964;-72
2022/03/15 13:01:07;;;;;;;6.40;2.80;;;;;;;;;;4966821;28;94904;-73
2022/03/15 13:03:35;;;;;;;10.35;3.58;;;;;;;;;;4974151;28;95713;-73
2022/03/15 13:06:03;;;;;;;7.25;3.00;;;;;;;;;;4978237;28;92825;-73
2022/03/15 13:08:31;;;;;;;9.00;2.75;;;;;;;;;;4969722;28;94692;-73
2022/03/15 13:11:02;;;;;;;14.38;3.58;;;;;;;;;;4963805;28;94118;-72
2022/03/15 13:13:28;;;;;;;9.80;3.67;;;;;;;;;;4975636;28;92664;-73
2022/03/15 13:16:03;;;;;;;13.80;4.05;;;;;;;;;;4976148;28;93247;-73
2022/03/15 13:18:30;;;;;;;13.73;4.47;;;;;;;;;;4973057;28;92679;-75
2022/03/15 13:21:01;;;;;;;12.77;3.63;;;;;;;;;;4969210;28;92994;-72
2022/03/15 13:23:32;;;;;;;10.48;3.30;;;;;;;;;;4975174;28;93533;-73
2022/03/15 13:26:04;;;;;;;8.95;3.80;;;;;;;;;;4972078;28;95401;-72
2022/03/15 13:28:37;;;;;;;9.80;3.63;;;;;;;;;;4976367;28;92459;-72
2022/03/15 13:31:06;;;;;;;7.53;3.40;;;;;;;;;;4963477;28;93563;-72
2022/03/15 13:33:37;;;;;;;9.05;3.00;;;;;;;;;;4973564;28;93158;-72
2022/03/15 13:36:11;;;;;;;8.52;4.40;;;;;;;;;;4973553;28;93055;-73
2022/03/15 13:38:44;;;;;;;8.43;3.83;;;;;;;;;;4973536;28;93400;-72
2022/03/15 13:41:12;;;;;;;8.40;3.65;;;;;;;;;;4970745;28;92545;-70
2022/03/15 13:43:41;;;;;;;12.80;4.53;;;;;;;;;;4961016;28;93481;-70
2022/03/15 13:46:08;;;;;;;8.32;3.83;;;;;;;;;;4973728;28;93604;-71
2022/03/15 13:48:37;;;;;;;13.88;4.40;;;;;;;;;;4954862;28;92397;-73
2022/03/15 13:51:07;;;;;;;11.48;4.00;;;;;;;;;;4967852;28;94897;-72
2022/03/15 13:53:35;;;;;;;13.27;4.67;;;;;;;;;;4954171;28;92657;-72
2022/03/15 13:56:06;;;;;;;11.82;4.60;;;;;;;;;;4958098;28;94250;-71
2022/03/15 13:58:32;;;;;;;11.15;4.20;;;;;;;;;;4972050;28;93998;-72
2022/03/15 14:01:00;;;;;;;15.25;4.00;;;;;;;;;;4957889;28;92557;-70
2022/03/15 14:03:33;;;;;;;11.43;3.92;;;;;;;;;;4966616;28;93978;-72
2022/03/15 14:06:01;;;;;;;19.92;4.50;;;;;;;;;;4966558;28;93751;-72
2022/03/15 14:08:43;;;;;;;12.98;4.15;;;;;;;;;;4969196;28;91708;-71
2022/03/15 14:11:11;;;;;;;11.43;4.13;;;;;;;;;;4976991;28;93540;-71
2022/03/15 14:13:41;;;;;;;10.90;4.05;;;;;;;;;;4972487;28;93345;-72
2022/03/15 14:16:10;;;;;;;10.95;3.97;;;;;;;;;;4962276;28;94817;-71
2022/03/15 14:18:37;;;;;;;9.80;4.25;;;;;;;;;;4974175;28;93610;-71
2022/03/15 14:21:19;;;;;;;11.25;4.57;;;;;;;;;;4973995;28;92465;-72
2022/03/15 14:23:53;;;;;;;14.70;4.13;;;;;;;;;;4973473;28;92973;-71
2022/03/15 14:26:27;;;;;;;14.80;4.82;;;;;;;;;;4954042;28;94220;-72
2022/03/15 14:28:55;;;;;;;10.65;4.28;;;;;;;;;;4965674;28;92465;-71
2022/03/15 14:31:28;;;;;;;13.20;5.68;;;;;;;;;;4972952;28;93237;-71